sensor_id;sensor_type;location;lat;lon;timestamp;P1;durP1;ratioP1;P2;durP2;ratioP2
15990;SDS011;8100;50.994;4.538;2022-09-27T00:02:24;0.70;;;0.32;;
15990;SDS011;8100;50.994;4.538;2022-09-27T00:05:11;1.00;;;0.32;;
15990;SDS011;8100;50.994;4.538;2022-09-27T00:07:58;0.55;;;0.38;;
15990;SDS011;8100;50.994;4.538;2022-09-27T00:10:45;3.22;;;0.32;;
15990;SDS011;8100;50.994;4.538;2022-09-27T00:13:34;1.35;;;0.60;;
15990;SDS011;8100;50.994;4.538;2022-09-27T00:16:21;2.95;;;0.40;;
15990;SDS011;8100;50.994;4.538;2022-09-27T00:19:10;1.33;;;0.55;;
15990;SDS011;8100;50.994;4.538;2022-09-27T00:21:59;1.90;;;0.70;;
15990;SDS011;8100;50.994;4.538;2022-09-27T00:24:46;1.02;;;0.40;;
15990;SDS011;8100;50.994;4.538;2022-09-27T00:27:34;1.75;;;0.60;;
15990;SDS011;8100;50.994;4.538;2022-09-27T00:30:22;2.72;;;0.70;;
15990;SDS011;8100;50.994;4.538;2022-09-27T00:33:10;1.40;;;0.60;;
15990;SDS011;8100;50.994;4.538;2022-09-27T00:36:02;1.98;;;0.75;;
15990;SDS011;8100;50.994;4.538;2022-09-27T00:38:50;1.77;;;0.60;;
15990;SDS011;8100;50.994;4.538;2022-09-27T00:41:38;1.65;;;0.85;;
15990;SDS011;8100;50.994;4.538;2022-09-27T00:47:52;1.02;;;0.63;;
15990;SDS011;8100;50.994;4.538;2022-09-27T00:50:44;3.85;;;0.80;;
15990;SDS011;8100;50.994;4.538;2022-09-27T00:53:36;1.35;;;0.88;;
15990;SDS011;8100;50.994;4.538;2022-09-27T00:56:30;2.17;;;0.60;;
15990;SDS011;8100;50.994;4.538;2022-09-27T00:59:19;2.45;;;0.60;;
15990;SDS011;8100;50.994;4.538;2022-09-27T01:02:11;3.22;;;0.50;;
15990;SDS011;8100;50.994;4.538;2022-09-27T01:05:00;3.65;;;0.70;;
15990;SDS011;8100;50.994;4.538;2022-09-27T01:07:48;2.17;;;0.32;;
15990;SDS011;8100;50.994;4.538;2022-09-27T01:10:35;2.03;;;0.40;;
15990;SDS011;8100;50.994;4.538;2022-09-27T01:13:34;2.00;;;0.50;;
15990;SDS011;8100;50.994;4.538;2022-09-27T01:16:28;1.38;;;0.40;;
15990;SDS011;8100;50.994;4.538;2022-09-27T01:19:29;1.38;;;0.50;;
15990;SDS011;8100;50.994;4.538;2022-09-27T01:22:38;3.20;;;0.35;;
15990;SDS011;8100;50.994;4.538;2022-09-27T01:25:36;3.55;;;0.65;;
15990;SDS011;8100;50.994;4.538;2022-09-27T01:28:37;1.75;;;0.50;;
15990;SDS011;8100;50.994;4.538;2022-09-27T01:31:39;1.13;;;0.47;;
15990;SDS011;8100;50.994;4.538;2022-09-27T01:34:34;3.20;;;0.50;;
15990;SDS011;8100;50.994;4.538;2022-09-27T01:37:30;0.80;;;0.40;;
15990;SDS011;8100;50.994;4.538;2022-09-27T01:40:22;1.35;;;0.30;;
15990;SDS011;8100;50.994;4.538;2022-09-27T01:43:16;3.38;;;0.32;;
15990;SDS011;8100;50.994;4.538;2022-09-27T01:46:07;2.88;;;0.30;;
15990;SDS011;8100;50.994;4.538;2022-09-27T01:49:03;1.42;;;0.38;;
15990;SDS011;8100;50.994;4.538;2022-09-27T01:51:56;2.72;;;0.40;;
15990;SDS011;8100;50.994;4.538;2022-09-27T01:54:47;1.80;;;0.30;;
15990;SDS011;8100;50.994;4.538;2022-09-27T01:57:39;0.85;;;0.30;;
15990;SDS011;8100;50.994;4.538;2022-09-27T02:00:31;0.68;;;0.10;;
15990;SDS011;8100;50.994;4.538;2022-09-27T02:03:21;1.33;;;0.17;;
15990;SDS011;8100;50.994;4.538;2022-09-27T02:06:13;1.52;;;0.40;;
15990;SDS011;8100;50.994;4.538;2022-09-27T02:09:05;1.55;;;0.32;;
15990;SDS011;8100;50.994;4.538;2022-09-27T02:11:57;0.70;;;0.20;;
15990;SDS011;8100;50.994;4.538;2022-09-27T02:14:48;1.35;;;0.20;;
15990;SDS011;8100;50.994;4.538;2022-09-27T02:17:41;1.33;;;0.22;;
15990;SDS011;8100;50.994;4.538;2022-09-27T02:20:36;1.58;;;0.38;;
15990;SDS011;8100;50.994;4.538;2022-09-27T02:23:28;2.08;;;0.20;;
15990;SDS011;8100;50.994;4.538;2022-09-27T02:26:23;0.28;;;0.20;;
15990;SDS011;8100;50.994;4.538;2022-09-27T02:29:13;0.35;;;0.10;;
15990;SDS011;8100;50.994;4.538;2022-09-27T02:32:04;1.63;;;0.40;;
15990;SDS011;8100;50.994;4.538;2022-09-27T02:34:51;1.33;;;0.22;;
15990;SDS011;8100;50.994;4.538;2022-09-27T02:37:40;0.10;;;0.10;;
15990;SDS011;8100;50.994;4.538;2022-09-27T02:40:30;1.13;;;0.20;;
15990;SDS011;8100;50.994;4.538;2022-09-27T02:43:19;1.08;;;0.28;;
15990;SDS011;8100;50.994;4.538;2022-09-27T02:46:15;1.05;;;0.10;;
15990;SDS011;8100;50.994;4.538;2022-09-27T02:49:19;1.10;;;0.20;;
15990;SDS011;8100;50.994;4.538;2022-09-27T02:52:19;1.65;;;0.20;;
15990;SDS011;8100;50.994;4.538;2022-09-27T02:55:16;0.88;;;0.30;;
15990;SDS011;8100;50.994;4.538;2022-09-27T02:58:09;0.30;;;0.15;;
15990;SDS011;8100;50.994;4.538;2022-09-27T03:01:06;1.02;;;0.30;;
15990;SDS011;8100;50.994;4.538;2022-09-27T03:03:59;0.57;;;0.25;;
15990;SDS011;8100;50.994;4.538;2022-09-27T03:06:52;1.67;;;0.32;;
15990;SDS011;8100;50.994;4.538;2022-09-27T03:09:42;0.32;;;0.20;;
15990;SDS011;8100;50.994;4.538;2022-09-27T03:12:32;1.02;;;0.22;;
15990;SDS011;8100;50.994;4.538;2022-09-27T03:15:21;0.50;;;0.20;;
15990;SDS011;8100;50.994;4.538;2022-09-27T03:18:08;0.95;;;0.20;;
15990;SDS011;8100;50.994;4.538;2022-09-27T03:20:56;0.35;;;0.10;;
15990;SDS011;8100;50.994;4.538;2022-09-27T03:23:43;1.08;;;0.20;;
15990;SDS011;8100;50.994;4.538;2022-09-27T03:26:30;0.35;;;0.20;;
15990;SDS011;8100;50.994;4.538;2022-09-27T03:29:18;0.10;;;0.10;;
15990;SDS011;8100;50.994;4.538;2022-09-27T03:32:06;0.20;;;0.10;;
15990;SDS011;8100;50.994;4.538;2022-09-27T03:34:54;0.82;;;0.10;;
15990;SDS011;8100;50.994;4.538;2022-09-27T03:37:41;1.70;;;0.20;;
15990;SDS011;8100;50.994;4.538;2022-09-27T03:40:28;0.70;;;0.30;;
15990;SDS011;8100;50.994;4.538;2022-09-27T03:43:15;3.67;;;0.50;;
15990;SDS011;8100;50.994;4.538;2022-09-27T03:46:02;4.38;;;0.80;;
15990;SDS011;8100;50.994;4.538;2022-09-27T03:48:51;1.33;;;0.50;;
15990;SDS011;8100;50.994;4.538;2022-09-27T03:51:38;1.58;;;0.20;;
15990;SDS011;8100;50.994;4.538;2022-09-27T03:54:27;0.55;;;0.22;;
15990;SDS011;8100;50.994;4.538;2022-09-27T03:57:14;1.13;;;0.40;;
15990;SDS011;8100;50.994;4.538;2022-09-27T04:00:02;0.32;;;0.10;;
15990;SDS011;8100;50.994;4.538;2022-09-27T04:02:50;0.13;;;0.13;;
15990;SDS011;8100;50.994;4.538;2022-09-27T04:05:39;0.90;;;0.30;;
15990;SDS011;8100;50.994;4.538;2022-09-27T04:08:26;0.60;;;0.30;;
15990;SDS011;8100;50.994;4.538;2022-09-27T04:11:14;2.22;;;0.50;;
15990;SDS011;8100;50.994;4.538;2022-09-27T04:14:02;0.70;;;0.60;;
15990;SDS011;8100;50.994;4.538;2022-09-27T04:16:50;1.70;;;0.52;;
15990;SDS011;8100;50.994;4.538;2022-09-27T04:19:37;1.77;;;0.40;;
15990;SDS011;8100;50.994;4.538;2022-09-27T04:22:26;1.00;;;0.40;;
15990;SDS011;8100;50.994;4.538;2022-09-27T04:25:13;0.55;;;0.35;;
15990;SDS011;8100;50.994;4.538;2022-09-27T04:28:00;1.85;;;0.60;;
15990;SDS011;8100;50.994;4.538;2022-09-27T04:30:48;0.65;;;0.50;;
15990;SDS011;8100;50.994;4.538;2022-09-27T04:33:35;2.15;;;0.70;;
15990;SDS011;8100;50.994;4.538;2022-09-27T04:36:22;0.65;;;0.50;;
15990;SDS011;8100;50.994;4.538;2022-09-27T04:39:14;1.08;;;0.70;;
15990;SDS011;8100;50.994;4.538;2022-09-27T04:42:02;1.05;;;0.68;;
15990;SDS011;8100;50.994;4.538;2022-09-27T04:44:50;2.80;;;1.00;;
15990;SDS011;8100;50.994;4.538;2022-09-27T04:47:40;1.52;;;0.70;;
15990;SDS011;8100;50.994;4.538;2022-09-27T04:50:28;1.98;;;0.90;;
15990;SDS011;8100;50.994;4.538;2022-09-27T04:53:17;2.42;;;0.70;;
15990;SDS011;8100;50.994;4.538;2022-09-27T04:56:05;1.50;;;1.02;;
15990;SDS011;8100;50.994;4.538;2022-09-27T04:58:53;3.08;;;1.40;;
15990;SDS011;8100;50.994;4.538;2022-09-27T05:01:40;1.40;;;0.93;;
15990;SDS011;8100;50.994;4.538;2022-09-27T05:04:27;2.08;;;1.45;;
15990;SDS011;8100;50.994;4.538;2022-09-27T05:07:14;2.17;;;1.52;;
15990;SDS011;8100;50.994;4.538;2022-09-27T05:10:02;2.60;;;1.90;;
15990;SDS011;8100;50.994;4.538;2022-09-27T05:12:51;2.95;;;2.10;;
15990;SDS011;8100;50.994;4.538;2022-09-27T05:15:38;3.58;;;1.83;;
15990;SDS011;8100;50.994;4.538;2022-09-27T05:18:25;2.75;;;1.80;;
15990;SDS011;8100;50.994;4.538;2022-09-27T05:21:13;1.80;;;1.10;;
15990;SDS011;8100;50.994;4.538;2022-09-27T05:24:00;1.70;;;1.10;;
15990;SDS011;8100;50.994;4.538;2022-09-27T05:26:47;1.20;;;1.10;;
15990;SDS011;8100;50.994;4.538;2022-09-27T05:29:36;2.10;;;1.23;;
15990;SDS011;8100;50.994;4.538;2022-09-27T05:32:24;3.40;;;1.50;;
15990;SDS011;8100;50.994;4.538;2022-09-27T05:35:11;1.00;;;0.90;;
15990;SDS011;8100;50.994;4.538;2022-09-27T05:37:59;1.20;;;0.80;;
15990;SDS011;8100;50.994;4.538;2022-09-27T05:40:46;1.58;;;0.90;;
15990;SDS011;8100;50.994;4.538;2022-09-27T05:43:35;1.27;;;0.80;;
15990;SDS011;8100;50.994;4.538;2022-09-27T05:46:23;0.85;;;0.80;;
15990;SDS011;8100;50.994;4.538;2022-09-27T05:49:11;1.55;;;0.75;;
15990;SDS011;8100;50.994;4.538;2022-09-27T05:51:58;1.67;;;0.82;;
15990;SDS011;8100;50.994;4.538;2022-09-27T05:54:46;2.35;;;1.00;;
15990;SDS011;8100;50.994;4.538;2022-09-27T05:57:33;2.55;;;1.00;;
15990;SDS011;8100;50.994;4.538;2022-09-27T06:00:21;3.08;;;0.88;;
15990;SDS011;8100;50.994;4.538;2022-09-27T06:03:11;1.00;;;0.85;;
15990;SDS011;8100;50.994;4.538;2022-09-27T06:06:00;1.98;;;1.00;;
15990;SDS011;8100;50.994;4.538;2022-09-27T06:08:50;1.17;;;0.98;;
15990;SDS011;8100;50.994;4.538;2022-09-27T06:11:38;2.13;;;1.00;;
15990;SDS011;8100;50.994;4.538;2022-09-27T06:14:27;1.33;;;0.93;;
15990;SDS011;8100;50.994;4.538;2022-09-27T06:17:14;2.45;;;1.15;;
15990;SDS011;8100;50.994;4.538;2022-09-27T06:20:03;1.38;;;1.05;;
15990;SDS011;8100;50.994;4.538;2022-09-27T06:22:52;1.08;;;0.98;;
15990;SDS011;8100;50.994;4.538;2022-09-27T06:25:39;1.92;;;1.17;;
15990;SDS011;8100;50.994;4.538;2022-09-27T06:28:27;1.98;;;0.77;;
15990;SDS011;8100;50.994;4.538;2022-09-27T06:31:14;2.58;;;0.90;;
15990;SDS011;8100;50.994;4.538;2022-09-27T06:34:01;1.67;;;1.00;;
15990;SDS011;8100;50.994;4.538;2022-09-27T06:36:50;1.38;;;1.00;;
15990;SDS011;8100;50.994;4.538;2022-09-27T06:39:37;1.73;;;1.10;;
15990;SDS011;8100;50.994;4.538;2022-09-27T06:42:25;1.10;;;1.00;;
15990;SDS011;8100;50.994;4.538;2022-09-27T06:45:13;2.92;;;0.80;;
15990;SDS011;8100;50.994;4.538;2022-09-27T06:48:01;1.42;;;1.00;;
15990;SDS011;8100;50.994;4.538;2022-09-27T06:50:48;1.15;;;0.82;;
15990;SDS011;8100;50.994;4.538;2022-09-27T06:53:37;1.27;;;0.85;;
15990;SDS011;8100;50.994;4.538;2022-09-27T06:56:24;2.35;;;0.73;;
15990;SDS011;8100;50.994;4.538;2022-09-27T06:59:11;1.27;;;1.10;;
15990;SDS011;8100;50.994;4.538;2022-09-27T07:02:27;1.63;;;0.82;;
15990;SDS011;8100;50.994;4.538;2022-09-27T07:05:14;0.90;;;0.70;;
15990;SDS011;8100;50.994;4.538;2022-09-27T07:08:02;2.67;;;0.85;;
15990;SDS011;8100;50.994;4.538;2022-09-27T07:10:51;1.98;;;0.80;;
15990;SDS011;8100;50.994;4.538;2022-09-27T07:13:39;1.02;;;0.82;;
15990;SDS011;8100;50.994;4.538;2022-09-27T07:16:28;0.60;;;0.60;;
15990;SDS011;8100;50.994;4.538;2022-09-27T07:19:15;1.35;;;0.70;;
15990;SDS011;8100;50.994;4.538;2022-09-27T07:22:03;1.48;;;1.00;;
15990;SDS011;8100;50.994;4.538;2022-09-27T07:24:50;2.97;;;1.02;;
15990;SDS011;8100;50.994;4.538;2022-09-27T07:27:39;3.08;;;0.93;;
15990;SDS011;8100;50.994;4.538;2022-09-27T07:30:26;1.25;;;0.80;;
15990;SDS011;8100;50.994;4.538;2022-09-27T07:33:14;1.77;;;0.90;;
15990;SDS011;8100;50.994;4.538;2022-09-27T07:36:05;1.35;;;1.00;;
15990;SDS011;8100;50.994;4.538;2022-09-27T07:38:53;1.52;;;1.00;;
15990;SDS011;8100;50.994;4.538;2022-09-27T07:41:41;1.58;;;1.10;;
15990;SDS011;8100;50.994;4.538;2022-09-27T07:44:30;2.60;;;1.13;;
15990;SDS011;8100;50.994;4.538;2022-09-27T07:47:18;4.43;;;1.10;;
15990;SDS011;8100;50.994;4.538;2022-09-27T07:50:06;1.38;;;1.10;;
15990;SDS011;8100;50.994;4.538;2022-09-27T07:52:55;2.03;;;1.00;;
15990;SDS011;8100;50.994;4.538;2022-09-27T07:55:43;1.73;;;1.10;;
15990;SDS011;8100;50.994;4.538;2022-09-27T07:58:35;3.03;;;1.15;;
15990;SDS011;8100;50.994;4.538;2022-09-27T08:01:23;1.30;;;0.95;;
15990;SDS011;8100;50.994;4.538;2022-09-27T08:04:11;1.25;;;0.82;;
15990;SDS011;8100;50.994;4.538;2022-09-27T08:06:58;2.22;;;1.20;;
15990;SDS011;8100;50.994;4.538;2022-09-27T08:09:45;2.65;;;1.00;;
15990;SDS011;8100;50.994;4.538;2022-09-27T08:12:32;1.00;;;0.90;;
15990;SDS011;8100;50.994;4.538;2022-09-27T08:15:20;0.85;;;0.70;;
15990;SDS011;8100;50.994;4.538;2022-09-27T08:18:08;2.17;;;1.08;;
15990;SDS011;8100;50.994;4.538;2022-09-27T08:20:56;3.40;;;0.80;;
15990;SDS011;8100;50.994;4.538;2022-09-27T08:23:43;1.35;;;1.00;;
15990;SDS011;8100;50.994;4.538;2022-09-27T08:26:30;1.00;;;0.88;;
15990;SDS011;8100;50.994;4.538;2022-09-27T08:29:17;1.88;;;0.90;;
15990;SDS011;8100;50.994;4.538;2022-09-27T08:32:05;4.05;;;1.17;;
15990;SDS011;8100;50.994;4.538;2022-09-27T08:34:53;2.15;;;0.70;;
15990;SDS011;8100;50.994;4.538;2022-09-27T08:37:41;1.35;;;1.00;;
15990;SDS011;8100;50.994;4.538;2022-09-27T08:40:30;0.90;;;0.75;;
15990;SDS011;8100;50.994;4.538;2022-09-27T08:43:38;0.95;;;0.80;;
15990;SDS011;8100;50.994;4.538;2022-09-27T08:46:32;0.50;;;0.50;;
15990;SDS011;8100;50.994;4.538;2022-09-27T08:49:29;0.70;;;0.70;;
15990;SDS011;8100;50.994;4.538;2022-09-27T08:52:21;1.10;;;0.70;;
15990;SDS011;8100;50.994;4.538;2022-09-27T08:55:16;1.15;;;0.70;;
15990;SDS011;8100;50.994;4.538;2022-09-27T08:58:10;1.25;;;0.57;;
15990;SDS011;8100;50.994;4.538;2022-09-27T09:01:02;0.60;;;0.40;;
15990;SDS011;8100;50.994;4.538;2022-09-27T09:03:51;0.80;;;0.50;;
15990;SDS011;8100;50.994;4.538;2022-09-27T09:06:42;1.42;;;0.70;;
15990;SDS011;8100;50.994;4.538;2022-09-27T09:09:39;2.45;;;0.60;;
15990;SDS011;8100;50.994;4.538;2022-09-27T09:12:36;0.70;;;0.50;;
15990;SDS011;8100;50.994;4.538;2022-09-27T09:15:34;1.38;;;0.60;;
15990;SDS011;8100;50.994;4.538;2022-09-27T09:18:43;0.43;;;0.38;;
15990;SDS011;8100;50.994;4.538;2022-09-27T09:21:44;0.93;;;0.50;;
15990;SDS011;8100;50.994;4.538;2022-09-27T09:24:44;1.15;;;0.60;;
15990;SDS011;8100;50.994;4.538;2022-09-27T09:27:45;1.73;;;0.70;;
15990;SDS011;8100;50.994;4.538;2022-09-27T09:30:40;1.98;;;0.80;;
15990;SDS011;8100;50.994;4.538;2022-09-27T09:33:38;0.80;;;0.50;;
15990;SDS011;8100;50.994;4.538;2022-09-27T09:36:30;1.10;;;0.70;;
15990;SDS011;8100;50.994;4.538;2022-09-27T09:39:22;1.27;;;0.60;;
15990;SDS011;8100;50.994;4.538;2022-09-27T09:42:14;1.50;;;0.60;;
15990;SDS011;8100;50.994;4.538;2022-09-27T09:45:12;0.98;;;0.50;;
15990;SDS011;8100;50.994;4.538;2022-09-27T09:48:03;0.75;;;0.60;;
15990;SDS011;8100;50.994;4.538;2022-09-27T09:50:54;0.65;;;0.65;;
15990;SDS011;8100;50.994;4.538;2022-09-27T09:53:47;1.75;;;0.70;;
15990;SDS011;8100;50.994;4.538;2022-09-27T09:56:39;1.50;;;0.45;;
15990;SDS011;8100;50.994;4.538;2022-09-27T09:59:34;2.53;;;0.50;;
15990;SDS011;8100;50.994;4.538;2022-09-27T10:02:27;0.43;;;0.35;;
15990;SDS011;8100;50.994;4.538;2022-09-27T10:05:18;1.55;;;0.40;;
15990;SDS011;8100;50.994;4.538;2022-09-27T10:08:10;1.65;;;0.60;;
15990;SDS011;8100;50.994;4.538;2022-09-27T10:11:03;3.20;;;0.50;;
15990;SDS011;8100;50.994;4.538;2022-09-27T10:13:50;1.48;;;0.45;;
15990;SDS011;8100;50.994;4.538;2022-09-27T10:16:42;3.22;;;0.60;;
15990;SDS011;8100;50.994;4.538;2022-09-27T10:19:33;1.92;;;0.70;;
15990;SDS011;8100;50.994;4.538;2022-09-27T10:22:25;1.80;;;0.70;;
15990;SDS011;8100;50.994;4.538;2022-09-27T10:25:15;1.33;;;0.80;;
15990;SDS011;8100;50.994;4.538;2022-09-27T10:28:03;3.67;;;0.75;;
15990;SDS011;8100;50.994;4.538;2022-09-27T10:30:53;1.17;;;0.80;;
15990;SDS011;8100;50.994;4.538;2022-09-27T10:33:53;2.60;;;0.90;;
15990;SDS011;8100;50.994;4.538;2022-09-27T10:36:41;0.55;;;0.55;;
15990;SDS011;8100;50.994;4.538;2022-09-27T10:39:28;0.95;;;0.60;;
15990;SDS011;8100;50.994;4.538;2022-09-27T10:42:19;3.00;;;0.80;;
15990;SDS011;8100;50.994;4.538;2022-09-27T10:45:20;1.48;;;0.60;;
15990;SDS011;8100;50.994;4.538;2022-09-27T10:48:17;1.60;;;1.05;;
15990;SDS011;8100;50.994;4.538;2022-09-27T10:51:18;1.60;;;0.70;;
15990;SDS011;8100;50.994;4.538;2022-09-27T10:54:17;1.05;;;0.50;;
15990;SDS011;8100;50.994;4.538;2022-09-27T10:57:14;1.73;;;0.82;;
15990;SDS011;8100;50.994;4.538;2022-09-27T11:00:05;2.15;;;0.82;;
15990;SDS011;8100;50.994;4.538;2022-09-27T11:03:06;2.05;;;0.70;;
15990;SDS011;8100;50.994;4.538;2022-09-27T11:05:59;5.18;;;0.77;;
15990;SDS011;8100;50.994;4.538;2022-09-27T11:09:16;4.03;;;0.73;;
15990;SDS011;8100;50.994;4.538;2022-09-27T11:12:07;3.63;;;1.10;;
15990;SDS011;8100;50.994;4.538;2022-09-27T11:14:57;3.17;;;0.80;;
15990;SDS011;8100;50.994;4.538;2022-09-27T11:17:49;2.13;;;0.95;;
15990;SDS011;8100;50.994;4.538;2022-09-27T11:20:43;2.25;;;0.90;;
15990;SDS011;8100;50.994;4.538;2022-09-27T11:23:41;3.58;;;0.90;;
15990;SDS011;8100;50.994;4.538;2022-09-27T11:26:40;1.08;;;0.50;;
15990;SDS011;8100;50.994;4.538;2022-09-27T11:29:38;1.75;;;0.70;;
15990;SDS011;8100;50.994;4.538;2022-09-27T11:32:36;3.42;;;0.50;;
15990;SDS011;8100;50.994;4.538;2022-09-27T11:35:41;2.42;;;0.60;;
15990;SDS011;8100;50.994;4.538;2022-09-27T11:38:47;1.27;;;0.80;;
15990;SDS011;8100;50.994;4.538;2022-09-27T11:41:45;5.03;;;0.77;;
15990;SDS011;8100;50.994;4.538;2022-09-27T11:44:49;2.78;;;1.02;;
15990;SDS011;8100;50.994;4.538;2022-09-27T11:47:50;1.77;;;0.60;;
15990;SDS011;8100;50.994;4.538;2022-09-27T11:50:55;2.08;;;0.60;;
15990;SDS011;8100;50.994;4.538;2022-09-27T11:53:55;1.17;;;0.47;;
15990;SDS011;8100;50.994;4.538;2022-09-27T11:56:54;0.77;;;0.50;;
15990;SDS011;8100;50.994;4.538;2022-09-27T11:59:49;1.20;;;0.40;;
15990;SDS011;8100;50.994;4.538;2022-09-27T12:06:10;3.05;;;0.50;;
15990;SDS011;8100;50.994;4.538;2022-09-27T12:09:03;2.15;;;0.45;;
15990;SDS011;8100;50.994;4.538;2022-09-27T12:11:53;1.15;;;0.30;;
15990;SDS011;8100;50.994;4.538;2022-09-27T12:14:46;2.83;;;0.57;;
15990;SDS011;8100;50.994;4.538;2022-09-27T12:17:37;0.95;;;0.52;;
15990;SDS011;8100;50.994;4.538;2022-09-27T12:20:27;1.75;;;0.75;;
15990;SDS011;8100;50.994;4.538;2022-09-27T12:23:20;2.00;;;0.60;;
15990;SDS011;8100;50.994;4.538;2022-09-27T12:26:13;1.85;;;0.60;;
15990;SDS011;8100;50.994;4.538;2022-09-27T12:29:08;1.20;;;0.70;;
15990;SDS011;8100;50.994;4.538;2022-09-27T12:32:01;5.82;;;1.00;;
15990;SDS011;8100;50.994;4.538;2022-09-27T12:34:59;3.15;;;1.10;;
15990;SDS011;8100;50.994;4.538;2022-09-27T12:37:52;4.72;;;0.68;;
15990;SDS011;8100;50.994;4.538;2022-09-27T12:40:45;0.75;;;0.30;;
15990;SDS011;8100;50.994;4.538;2022-09-27T12:43:38;0.73;;;0.30;;
15990;SDS011;8100;50.994;4.538;2022-09-27T12:46:32;1.27;;;0.40;;
15990;SDS011;8100;50.994;4.538;2022-09-27T12:49:27;2.13;;;0.30;;
15990;SDS011;8100;50.994;4.538;2022-09-27T12:52:24;1.45;;;0.47;;
15990;SDS011;8100;50.994;4.538;2022-09-27T12:55:20;1.25;;;0.22;;
15990;SDS011;8100;50.994;4.538;2022-09-27T13:01:46;3.20;;;0.38;;
15990;SDS011;8100;50.994;4.538;2022-09-27T13:04:55;1.95;;;0.50;;
15990;SDS011;8100;50.994;4.538;2022-09-27T13:11:28;1.45;;;0.50;;
15990;SDS011;8100;50.994;4.538;2022-09-27T13:14:28;1.80;;;0.30;;
15990;SDS011;8100;50.994;4.538;2022-09-27T13:20:38;0.93;;;0.47;;
15990;SDS011;8100;50.994;4.538;2022-09-27T13:26:45;4.22;;;0.82;;
15990;SDS011;8100;50.994;4.538;2022-09-27T13:29:34;2.50;;;0.60;;
15990;SDS011;8100;50.994;4.538;2022-09-27T13:32:21;0.90;;;0.47;;
15990;SDS011;8100;50.994;4.538;2022-09-27T13:35:16;1.95;;;0.52;;
15990;SDS011;8100;50.994;4.538;2022-09-27T13:38:17;3.25;;;0.70;;
15990;SDS011;8100;50.994;4.538;2022-09-27T13:41:14;4.75;;;0.88;;
15990;SDS011;8100;50.994;4.538;2022-09-27T13:44:02;4.25;;;0.70;;
15990;SDS011;8100;50.994;4.538;2022-09-27T13:46:59;1.70;;;0.60;;
15990;SDS011;8100;50.994;4.538;2022-09-27T13:49:49;2.00;;;0.60;;
15990;SDS011;8100;50.994;4.538;2022-09-27T13:52:40;1.63;;;0.55;;
15990;SDS011;8100;50.994;4.538;2022-09-27T13:55:37;1.98;;;0.60;;
15990;SDS011;8100;50.994;4.538;2022-09-27T14:01:38;1.90;;;0.65;;
15990;SDS011;8100;50.994;4.538;2022-09-27T14:04:28;1.58;;;0.50;;
15990;SDS011;8100;50.994;4.538;2022-09-27T14:07:21;0.93;;;0.43;;
15990;SDS011;8100;50.994;4.538;2022-09-27T14:10:15;3.83;;;0.43;;
15990;SDS011;8100;50.994;4.538;2022-09-27T14:13:05;2.17;;;0.50;;
15990;SDS011;8100;50.994;4.538;2022-09-27T14:15:53;3.15;;;0.60;;
15990;SDS011;8100;50.994;4.538;2022-09-27T14:18:42;3.35;;;1.08;;
15990;SDS011;8100;50.994;4.538;2022-09-27T14:21:35;2.22;;;0.60;;
15990;SDS011;8100;50.994;4.538;2022-09-27T14:24:26;1.55;;;0.77;;
15990;SDS011;8100;50.994;4.538;2022-09-27T14:27:17;3.17;;;0.70;;
15990;SDS011;8100;50.994;4.538;2022-09-27T14:30:09;1.38;;;0.40;;
15990;SDS011;8100;50.994;4.538;2022-09-27T14:33:00;2.22;;;0.50;;
15990;SDS011;8100;50.994;4.538;2022-09-27T14:35:48;2.75;;;0.70;;
15990;SDS011;8100;50.994;4.538;2022-09-27T14:38:55;1.10;;;0.40;;
15990;SDS011;8100;50.994;4.538;2022-09-27T14:41:43;6.93;;;0.70;;
15990;SDS011;8100;50.994;4.538;2022-09-27T14:44:31;2.75;;;0.45;;
15990;SDS011;8100;50.994;4.538;2022-09-27T14:47:21;2.28;;;0.57;;
15990;SDS011;8100;50.994;4.538;2022-09-27T14:50:15;3.42;;;0.60;;
15990;SDS011;8100;50.994;4.538;2022-09-27T14:53:19;1.40;;;0.50;;
15990;SDS011;8100;50.994;4.538;2022-09-27T14:56:08;1.05;;;0.40;;
15990;SDS011;8100;50.994;4.538;2022-09-27T14:59:03;1.10;;;0.55;;
15990;SDS011;8100;50.994;4.538;2022-09-27T15:01:57;1.10;;;0.40;;
15990;SDS011;8100;50.994;4.538;2022-09-27T15:04:48;1.00;;;0.55;;
15990;SDS011;8100;50.994;4.538;2022-09-27T15:07:37;1.45;;;0.60;;
15990;SDS011;8100;50.994;4.538;2022-09-27T15:10:24;2.55;;;0.70;;
15990;SDS011;8100;50.994;4.538;2022-09-27T15:13:16;2.67;;;0.80;;
15990;SDS011;8100;50.994;4.538;2022-09-27T15:16:05;2.08;;;0.70;;
15990;SDS011;8100;50.994;4.538;2022-09-27T15:18:59;1.50;;;0.60;;
15990;SDS011;8100;50.994;4.538;2022-09-27T15:21:48;2.92;;;0.63;;
15990;SDS011;8100;50.994;4.538;2022-09-27T15:24:36;1.23;;;0.50;;
15990;SDS011;8100;50.994;4.538;2022-09-27T15:27:25;2.65;;;0.70;;
15990;SDS011;8100;50.994;4.538;2022-09-27T15:30:15;5.78;;;0.85;;
15990;SDS011;8100;50.994;4.538;2022-09-27T15:33:05;1.55;;;0.70;;
15990;SDS011;8100;50.994;4.538;2022-09-27T15:36:05;1.30;;;0.80;;
15990;SDS011;8100;50.994;4.538;2022-09-27T15:38:56;2.65;;;1.10;;
15990;SDS011;8100;50.994;4.538;2022-09-27T15:41:59;2.25;;;0.93;;
15990;SDS011;8100;50.994;4.538;2022-09-27T15:44:49;1.35;;;0.80;;
15990;SDS011;8100;50.994;4.538;2022-09-27T15:47:39;2.88;;;0.70;;
15990;SDS011;8100;50.994;4.538;2022-09-27T15:50:31;1.85;;;0.75;;
15990;SDS011;8100;50.994;4.538;2022-09-27T15:56:38;3.25;;;0.70;;
15990;SDS011;8100;50.994;4.538;2022-09-27T15:59:26;2.05;;;0.80;;
15990;SDS011;8100;50.994;4.538;2022-09-27T16:02:15;1.50;;;0.70;;
15990;SDS011;8100;50.994;4.538;2022-09-27T16:05:04;1.75;;;0.60;;
15990;SDS011;8100;50.994;4.538;2022-09-27T16:07:51;1.92;;;1.30;;
15990;SDS011;8100;50.994;4.538;2022-09-27T16:10:43;5.55;;;2.00;;
15990;SDS011;8100;50.994;4.538;2022-09-27T16:13:33;1.80;;;0.95;;
15990;SDS011;8100;50.994;4.538;2022-09-27T16:16:21;1.65;;;0.70;;
15990;SDS011;8100;50.994;4.538;2022-09-27T16:19:08;1.77;;;0.85;;
15990;SDS011;8100;50.994;4.538;2022-09-27T16:21:55;2.00;;;0.70;;
15990;SDS011;8100;50.994;4.538;2022-09-27T16:24:42;2.33;;;0.95;;
15990;SDS011;8100;50.994;4.538;2022-09-27T16:27:31;2.63;;;0.85;;
15990;SDS011;8100;50.994;4.538;2022-09-27T16:30:19;1.70;;;0.80;;
15990;SDS011;8100;50.994;4.538;2022-09-27T16:33:06;3.85;;;0.88;;
15990;SDS011;8100;50.994;4.538;2022-09-27T16:35:53;3.25;;;1.00;;
15990;SDS011;8100;50.994;4.538;2022-09-27T16:38:41;2.00;;;1.00;;
15990;SDS011;8100;50.994;4.538;2022-09-27T16:41:28;1.63;;;1.05;;
15990;SDS011;8100;50.994;4.538;2022-09-27T16:44:16;2.40;;;1.15;;
15990;SDS011;8100;50.994;4.538;2022-09-27T16:47:04;2.60;;;0.90;;
15990;SDS011;8100;50.994;4.538;2022-09-27T16:49:51;5.57;;;1.45;;
15990;SDS011;8100;50.994;4.538;2022-09-27T16:52:56;1.63;;;1.05;;
15990;SDS011;8100;50.994;4.538;2022-09-27T16:55:44;2.90;;;1.15;;
15990;SDS011;8100;50.994;4.538;2022-09-27T16:58:31;1.30;;;1.00;;
15990;SDS011;8100;50.994;4.538;2022-09-27T17:01:20;2.58;;;1.13;;
15990;SDS011;8100;50.994;4.538;2022-09-27T17:04:07;1.65;;;1.00;;
15990;SDS011;8100;50.994;4.538;2022-09-27T17:06:54;2.78;;;1.13;;
15990;SDS011;8100;50.994;4.538;2022-09-27T17:09:42;2.05;;;1.23;;
15990;SDS011;8100;50.994;4.538;2022-09-27T17:12:30;2.65;;;1.20;;
15990;SDS011;8100;50.994;4.538;2022-09-27T17:15:17;1.33;;;1.02;;
15990;SDS011;8100;50.994;4.538;2022-09-27T17:18:06;2.90;;;1.50;;
15990;SDS011;8100;50.994;4.538;2022-09-27T17:20:58;5.40;;;1.70;;
15990;SDS011;8100;50.994;4.538;2022-09-27T17:23:46;3.75;;;1.58;;
15990;SDS011;8100;50.994;4.538;2022-09-27T17:26:33;4.07;;;1.70;;
15990;SDS011;8100;50.994;4.538;2022-09-27T17:29:20;1.77;;;1.08;;
15990;SDS011;8100;50.994;4.538;2022-09-27T17:32:07;1.55;;;0.90;;
15990;SDS011;8100;50.994;4.538;2022-09-27T17:34:56;1.33;;;0.60;;
15990;SDS011;8100;50.994;4.538;2022-09-27T17:37:44;0.93;;;0.57;;
15990;SDS011;8100;50.994;4.538;2022-09-27T17:40:31;2.58;;;0.52;;
15990;SDS011;8100;50.994;4.538;2022-09-27T17:43:19;1.00;;;0.75;;
15990;SDS011;8100;50.994;4.538;2022-09-27T17:46:06;1.52;;;0.73;;
15990;SDS011;8100;50.994;4.538;2022-09-27T17:48:55;1.70;;;0.70;;
15990;SDS011;8100;50.994;4.538;2022-09-27T17:52:01;4.40;;;0.77;;
15990;SDS011;8100;50.994;4.538;2022-09-27T17:54:48;1.50;;;0.90;;